Pittsburgh, Pennsylvania
Traffic Map
Current Weather Conditions
Pittsburgh, Pennsylvania
Broken Clouds
Broken Clouds
65°
Feels Like: 65°
Wind Chill: 65° Ceiling: 9000
Heat Index: 65° Visibility: 10mi
Dew Point: 41° Wind: 8mph
Humidity: 42% Direction: 320° (NW)
Pressure: 30.13in Gusts: 23mph
Raw Report DataKAGC 221953Z 32007G20KT 240V360 10SM FEW048 SCT065 BKN090 18/05 A3013 RMK AO2 SLP208 T01830050
Traffic Incident Summary
Active as of:
Severity:
Category:
InformationThere was an issue retrieving the traffic information for this location. Please try a different location or try again shortly.
Advertisements
Track Severe Weather on mobile